Acosta, Pennsylvania
Current Conditions -  °F | °C
As of 12:30 PM on Tuesday 21 Oct 2014 (Local Time) from KJST Reporting Station
Overcast Overcast  
Wind Chill: 11°   Ceiling: 2200
Heat Index: 11°   Visibility: 9mi
Dew Point:   Wind: 12mph
Humidity: 80%   Direction: 260°W
Pressure: 29.86"   Gusts: NA
Location:  40.11°N, 79.07°W
Report Text: KJST 211630Z AUTO 26010KT 9SM SCT014 BKN022 OVC050 11/07 A2986 RMK AO2 T01060072
Loading
Personal Weather Stations






























Interactive Weather Map
Tropical Storm Tracking
New forecast layout! Learn more

10-Day Weather Forecast

Advertisements
Track Severe Weather on mobile